sensor_id;sensor_type;location;lat;lon;timestamp;P1;durP1;ratioP1;P2;durP2;ratioP2
24411;SDS011;12544;46.760;15.942;2023-12-20T00:01:23;92.72;;;53.50;;
24411;SDS011;12544;46.760;15.942;2023-12-20T00:03:48;108.53;;;57.95;;
24411;SDS011;12544;46.760;15.942;2023-12-20T00:06:14;98.93;;;54.83;;
24411;SDS011;12544;46.760;15.942;2023-12-20T00:08:40;75.88;;;48.28;;
24411;SDS011;12544;46.760;15.942;2023-12-20T00:11:05;64.03;;;36.88;;
24411;SDS011;12544;46.760;15.942;2023-12-20T00:13:31;55.40;;;34.53;;
24411;SDS011;12544;46.760;15.942;2023-12-20T00:15:56;53.75;;;33.92;;
24411;SDS011;12544;46.760;15.942;2023-12-20T00:18:22;48.50;;;31.65;;
24411;SDS011;12544;46.760;15.942;2023-12-20T00:20:48;49.28;;;31.05;;
24411;SDS011;12544;46.760;15.942;2023-12-20T00:23:14;51.63;;;31.17;;
24411;SDS011;12544;46.760;15.942;2023-12-20T00:25:39;46.55;;;31.65;;
24411;SDS011;12544;46.760;15.942;2023-12-20T00:28:05;52.35;;;33.47;;
24411;SDS011;12544;46.760;15.942;2023-12-20T00:30:31;57.25;;;32.53;;
24411;SDS011;12544;46.760;15.942;2023-12-20T00:32:57;49.83;;;33.38;;
24411;SDS011;12544;46.760;15.942;2023-12-20T00:35:22;49.67;;;32.25;;
24411;SDS011;12544;46.760;15.942;2023-12-20T00:37:48;52.05;;;33.05;;
24411;SDS011;12544;46.760;15.942;2023-12-20T00:40:14;50.72;;;34.05;;
24411;SDS011;12544;46.760;15.942;2023-12-20T00:42:40;53.95;;;34.05;;
24411;SDS011;12544;46.760;15.942;2023-12-20T00:45:06;58.13;;;35.45;;
24411;SDS011;12544;46.760;15.942;2023-12-20T00:47:31;47.88;;;30.52;;
24411;SDS011;12544;46.760;15.942;2023-12-20T00:49:57;56.78;;;35.90;;
24411;SDS011;12544;46.760;15.942;2023-12-20T00:52:23;55.63;;;35.08;;
24411;SDS011;12544;46.760;15.942;2023-12-20T00:54:49;61.28;;;37.50;;
24411;SDS011;12544;46.760;15.942;2023-12-20T00:57:15;59.08;;;37.55;;
24411;SDS011;12544;46.760;15.942;2023-12-20T00:59:41;62.10;;;39.03;;
24411;SDS011;12544;46.760;15.942;2023-12-20T01:02:06;65.90;;;38.65;;
24411;SDS011;12544;46.760;15.942;2023-12-20T01:04:32;64.50;;;38.28;;
24411;SDS011;12544;46.760;15.942;2023-12-20T01:06:58;57.88;;;35.90;;
24411;SDS011;12544;46.760;15.942;2023-12-20T01:09:23;58.88;;;35.80;;
24411;SDS011;12544;46.760;15.942;2023-12-20T01:11:51;52.45;;;33.10;;
24411;SDS011;12544;46.760;15.942;2023-12-20T01:14:17;59.25;;;33.80;;
24411;SDS011;12544;46.760;15.942;2023-12-20T01:16:43;61.28;;;36.97;;
24411;SDS011;12544;46.760;15.942;2023-12-20T01:19:08;56.90;;;35.00;;
24411;SDS011;12544;46.760;15.942;2023-12-20T01:21:34;53.70;;;33.55;;
24411;SDS011;12544;46.760;15.942;2023-12-20T01:24:00;61.63;;;34.58;;
24411;SDS011;12544;46.760;15.942;2023-12-20T01:26:25;51.97;;;31.15;;
24411;SDS011;12544;46.760;15.942;2023-12-20T01:28:51;46.55;;;29.58;;
24411;SDS011;12544;46.760;15.942;2023-12-20T01:31:16;50.78;;;30.30;;
24411;SDS011;12544;46.760;15.942;2023-12-20T01:33:42;50.75;;;29.08;;
24411;SDS011;12544;46.760;15.942;2023-12-20T01:36:08;43.40;;;29.13;;
24411;SDS011;12544;46.760;15.942;2023-12-20T01:38:34;48.20;;;31.33;;
24411;SDS011;12544;46.760;15.942;2023-12-20T01:40:59;45.30;;;29.50;;
24411;SDS011;12544;46.760;15.942;2023-12-20T01:43:25;42.97;;;30.02;;
24411;SDS011;12544;46.760;15.942;2023-12-20T01:45:51;42.85;;;27.75;;
24411;SDS011;12544;46.760;15.942;2023-12-20T01:48:17;39.30;;;28.05;;
24411;SDS011;12544;46.760;15.942;2023-12-20T01:50:44;47.47;;;29.85;;
24411;SDS011;12544;46.760;15.942;2023-12-20T01:53:11;51.53;;;29.63;;
24411;SDS011;12544;46.760;15.942;2023-12-20T01:55:40;43.30;;;27.75;;
24411;SDS011;12544;46.760;15.942;2023-12-20T01:58:09;47.13;;;28.70;;
24411;SDS011;12544;46.760;15.942;2023-12-20T02:00:36;53.50;;;29.48;;
24411;SDS011;12544;46.760;15.942;2023-12-20T02:03:02;47.85;;;27.80;;
24411;SDS011;12544;46.760;15.942;2023-12-20T02:05:29;49.15;;;30.42;;
24411;SDS011;12544;46.760;15.942;2023-12-20T02:07:55;47.05;;;28.58;;
24411;SDS011;12544;46.760;15.942;2023-12-20T02:10:21;47.22;;;29.77;;
24411;SDS011;12544;46.760;15.942;2023-12-20T02:12:47;46.63;;;28.92;;
24411;SDS011;12544;46.760;15.942;2023-12-20T02:15:12;49.80;;;30.67;;
24411;SDS011;12544;46.760;15.942;2023-12-20T02:17:38;43.65;;;27.77;;
24411;SDS011;12544;46.760;15.942;2023-12-20T02:20:05;52.53;;;30.38;;
24411;SDS011;12544;46.760;15.942;2023-12-20T02:22:31;50.40;;;31.60;;
24411;SDS011;12544;46.760;15.942;2023-12-20T02:24:57;54.17;;;30.25;;
24411;SDS011;12544;46.760;15.942;2023-12-20T02:27:22;43.85;;;28.67;;
24411;SDS011;12544;46.760;15.942;2023-12-20T02:29:48;42.45;;;28.45;;
24411;SDS011;12544;46.760;15.942;2023-12-20T02:32:15;40.40;;;27.67;;
24411;SDS011;12544;46.760;15.942;2023-12-20T02:34:42;45.35;;;29.15;;
24411;SDS011;12544;46.760;15.942;2023-12-20T02:37:08;46.63;;;27.85;;
24411;SDS011;12544;46.760;15.942;2023-12-20T02:39:33;46.65;;;29.25;;
24411;SDS011;12544;46.760;15.942;2023-12-20T02:41:59;40.63;;;26.88;;
24411;SDS011;12544;46.760;15.942;2023-12-20T02:44:24;45.55;;;28.35;;
24411;SDS011;12544;46.760;15.942;2023-12-20T02:46:50;44.45;;;27.85;;
24411;SDS011;12544;46.760;15.942;2023-12-20T02:49:16;45.92;;;29.23;;
24411;SDS011;12544;46.760;15.942;2023-12-20T02:51:41;46.45;;;30.55;;
24411;SDS011;12544;46.760;15.942;2023-12-20T02:54:07;51.03;;;29.73;;
24411;SDS011;12544;46.760;15.942;2023-12-20T02:56:33;51.72;;;31.98;;
24411;SDS011;12544;46.760;15.942;2023-12-20T02:58:59;57.28;;;31.83;;
24411;SDS011;12544;46.760;15.942;2023-12-20T03:01:24;56.97;;;32.83;;
24411;SDS011;12544;46.760;15.942;2023-12-20T03:03:50;54.05;;;31.90;;
24411;SDS011;12544;46.760;15.942;2023-12-20T03:06:17;56.95;;;32.42;;
24411;SDS011;12544;46.760;15.942;2023-12-20T03:08:43;57.97;;;32.92;;
24411;SDS011;12544;46.760;15.942;2023-12-20T03:11:09;51.33;;;30.38;;
24411;SDS011;12544;46.760;15.942;2023-12-20T03:13:35;52.00;;;32.50;;
24411;SDS011;12544;46.760;15.942;2023-12-20T03:16:01;45.53;;;30.85;;
24411;SDS011;12544;46.760;15.942;2023-12-20T03:18:26;59.38;;;34.22;;
24411;SDS011;12544;46.760;15.942;2023-12-20T03:20:53;52.13;;;32.47;;
24411;SDS011;12544;46.760;15.942;2023-12-20T03:23:19;51.97;;;32.35;;
24411;SDS011;12544;46.760;15.942;2023-12-20T03:25:44;63.00;;;36.15;;
24411;SDS011;12544;46.760;15.942;2023-12-20T03:28:10;62.28;;;36.22;;
24411;SDS011;12544;46.760;15.942;2023-12-20T03:30:35;68.07;;;37.05;;
24411;SDS011;12544;46.760;15.942;2023-12-20T03:33:01;60.17;;;37.55;;
24411;SDS011;12544;46.760;15.942;2023-12-20T03:35:27;57.58;;;35.85;;
24411;SDS011;12544;46.760;15.942;2023-12-20T03:37:52;66.32;;;37.85;;
24411;SDS011;12544;46.760;15.942;2023-12-20T03:40:18;65.50;;;38.17;;
24411;SDS011;12544;46.760;15.942;2023-12-20T03:42:44;63.10;;;37.17;;
24411;SDS011;12544;46.760;15.942;2023-12-20T03:45:09;76.85;;;42.53;;
24411;SDS011;12544;46.760;15.942;2023-12-20T03:47:35;74.60;;;41.72;;
24411;SDS011;12544;46.760;15.942;2023-12-20T03:50:00;87.97;;;43.72;;
24411;SDS011;12544;46.760;15.942;2023-12-20T03:52:27;78.38;;;42.65;;
24411;SDS011;12544;46.760;15.942;2023-12-20T03:54:52;72.22;;;41.05;;
24411;SDS011;12544;46.760;15.942;2023-12-20T03:57:18;73.65;;;39.83;;
24411;SDS011;12544;46.760;15.942;2023-12-20T03:59:44;71.28;;;38.80;;
24411;SDS011;12544;46.760;15.942;2023-12-20T04:02:09;69.13;;;38.42;;
24411;SDS011;12544;46.760;15.942;2023-12-20T04:04:35;66.97;;;36.58;;
24411;SDS011;12544;46.760;15.942;2023-12-20T04:07:01;53.20;;;33.45;;
24411;SDS011;12544;46.760;15.942;2023-12-20T04:09:26;55.08;;;31.52;;
24411;SDS011;12544;46.760;15.942;2023-12-20T04:11:52;53.42;;;32.90;;
24411;SDS011;12544;46.760;15.942;2023-12-20T04:14:17;51.22;;;30.60;;
24411;SDS011;12544;46.760;15.942;2023-12-20T04:16:43;43.70;;;27.55;;
24411;SDS011;12544;46.760;15.942;2023-12-20T04:19:08;43.70;;;28.63;;
24411;SDS011;12544;46.760;15.942;2023-12-20T04:21:34;49.72;;;28.58;;
24411;SDS011;12544;46.760;15.942;2023-12-20T04:23:59;42.92;;;25.27;;
24411;SDS011;12544;46.760;15.942;2023-12-20T04:26:25;41.30;;;23.88;;
24411;SDS011;12544;46.760;15.942;2023-12-20T04:28:51;36.60;;;22.52;;
24411;SDS011;12544;46.760;15.942;2023-12-20T04:31:16;33.15;;;20.50;;
24411;SDS011;12544;46.760;15.942;2023-12-20T04:33:42;30.73;;;21.30;;
24411;SDS011;12544;46.760;15.942;2023-12-20T04:36:07;32.38;;;20.27;;
24411;SDS011;12544;46.760;15.942;2023-12-20T04:38:34;25.95;;;17.67;;
24411;SDS011;12544;46.760;15.942;2023-12-20T04:40:59;34.10;;;21.00;;
24411;SDS011;12544;46.760;15.942;2023-12-20T04:43:25;27.73;;;19.95;;
24411;SDS011;12544;46.760;15.942;2023-12-20T04:45:51;33.75;;;19.33;;
24411;SDS011;12544;46.760;15.942;2023-12-20T04:48:16;38.45;;;23.45;;
24411;SDS011;12544;46.760;15.942;2023-12-20T04:50:42;27.88;;;19.52;;
24411;SDS011;12544;46.760;15.942;2023-12-20T04:53:07;25.80;;;17.73;;
24411;SDS011;12544;46.760;15.942;2023-12-20T04:55:33;29.00;;;18.30;;
24411;SDS011;12544;46.760;15.942;2023-12-20T04:57:58;35.22;;;23.33;;
24411;SDS011;12544;46.760;15.942;2023-12-20T05:00:24;33.70;;;21.00;;
24411;SDS011;12544;46.760;15.942;2023-12-20T05:02:50;27.17;;;18.63;;
24411;SDS011;12544;46.760;15.942;2023-12-20T05:05:15;31.67;;;19.98;;
24411;SDS011;12544;46.760;15.942;2023-12-20T05:07:42;35.00;;;21.08;;
24411;SDS011;12544;46.760;15.942;2023-12-20T05:10:09;31.83;;;20.83;;
24411;SDS011;12544;46.760;15.942;2023-12-20T05:12:34;41.05;;;22.52;;
24411;SDS011;12544;46.760;15.942;2023-12-20T05:15:00;68.97;;;30.90;;
24411;SDS011;12544;46.760;15.942;2023-12-20T05:17:26;73.50;;;36.05;;
24411;SDS011;12544;46.760;15.942;2023-12-20T05:19:51;46.42;;;26.40;;
24411;SDS011;12544;46.760;15.942;2023-12-20T05:22:18;57.67;;;30.55;;
24411;SDS011;12544;46.760;15.942;2023-12-20T05:24:44;46.53;;;24.55;;
24411;SDS011;12544;46.760;15.942;2023-12-20T05:27:10;56.80;;;31.02;;
24411;SDS011;12544;46.760;15.942;2023-12-20T05:29:37;50.95;;;30.23;;
24411;SDS011;12544;46.760;15.942;2023-12-20T05:32:03;48.88;;;28.92;;
24411;SDS011;12544;46.760;15.942;2023-12-20T05:34:32;50.53;;;27.90;;
24411;SDS011;12544;46.760;15.942;2023-12-20T05:36:57;34.53;;;22.15;;
24411;SDS011;12544;46.760;15.942;2023-12-20T05:39:23;44.45;;;22.92;;
24411;SDS011;12544;46.760;15.942;2023-12-20T05:41:49;42.67;;;24.65;;
24411;SDS011;12544;46.760;15.942;2023-12-20T05:44:14;41.70;;;25.52;;
24411;SDS011;12544;46.760;15.942;2023-12-20T05:46:40;52.05;;;30.02;;
24411;SDS011;12544;46.760;15.942;2023-12-20T05:49:06;57.55;;;30.92;;
24411;SDS011;12544;46.760;15.942;2023-12-20T05:51:31;49.92;;;29.45;;
24411;SDS011;12544;46.760;15.942;2023-12-20T05:53:57;45.72;;;28.08;;
24411;SDS011;12544;46.760;15.942;2023-12-20T05:56:23;40.15;;;24.55;;
24411;SDS011;12544;46.760;15.942;2023-12-20T05:58:49;35.35;;;22.67;;
24411;SDS011;12544;46.760;15.942;2023-12-20T06:01:15;43.78;;;23.67;;
24411;SDS011;12544;46.760;15.942;2023-12-20T06:03:44;46.33;;;26.90;;
24411;SDS011;12544;46.760;15.942;2023-12-20T06:06:10;51.40;;;29.77;;
24411;SDS011;12544;46.760;15.942;2023-12-20T06:08:37;45.92;;;28.98;;
24411;SDS011;12544;46.760;15.942;2023-12-20T06:11:03;51.22;;;29.40;;
24411;SDS011;12544;46.760;15.942;2023-12-20T06:13:29;57.17;;;34.53;;
24411;SDS011;12544;46.760;15.942;2023-12-20T06:15:55;74.43;;;44.53;;
24411;SDS011;12544;46.760;15.942;2023-12-20T06:18:20;54.38;;;29.98;;
24411;SDS011;12544;46.760;15.942;2023-12-20T06:20:46;47.38;;;26.05;;
24411;SDS011;12544;46.760;15.942;2023-12-20T06:23:12;55.40;;;30.92;;
24411;SDS011;12544;46.760;15.942;2023-12-20T06:25:37;62.15;;;31.95;;
24411;SDS011;12544;46.760;15.942;2023-12-20T06:28:03;62.08;;;34.30;;
24411;SDS011;12544;46.760;15.942;2023-12-20T06:30:29;55.85;;;32.05;;
24411;SDS011;12544;46.760;15.942;2023-12-20T06:32:54;50.72;;;29.83;;
24411;SDS011;12544;46.760;15.942;2023-12-20T06:35:22;76.47;;;38.38;;
24411;SDS011;12544;46.760;15.942;2023-12-20T06:37:48;74.47;;;39.53;;
24411;SDS011;12544;46.760;15.942;2023-12-20T06:40:13;65.82;;;39.35;;
24411;SDS011;12544;46.760;15.942;2023-12-20T06:42:39;67.35;;;38.65;;
24411;SDS011;12544;46.760;15.942;2023-12-20T06:45:05;63.90;;;36.60;;
24411;SDS011;12544;46.760;15.942;2023-12-20T06:47:30;50.25;;;33.28;;
24411;SDS011;12544;46.760;15.942;2023-12-20T06:49:56;55.95;;;32.92;;
24411;SDS011;12544;46.760;15.942;2023-12-20T06:52:22;53.83;;;30.48;;
24411;SDS011;12544;46.760;15.942;2023-12-20T06:54:47;52.10;;;32.22;;
24411;SDS011;12544;46.760;15.942;2023-12-20T06:57:13;59.08;;;33.65;;
24411;SDS011;12544;46.760;15.942;2023-12-20T06:59:40;52.63;;;32.58;;
24411;SDS011;12544;46.760;15.942;2023-12-20T07:02:05;59.22;;;33.90;;
24411;SDS011;12544;46.760;15.942;2023-12-20T07:04:31;59.92;;;36.80;;
24411;SDS011;12544;46.760;15.942;2023-12-20T07:06:57;66.45;;;40.65;;
24411;SDS011;12544;46.760;15.942;2023-12-20T07:09:25;76.05;;;42.50;;
24411;SDS011;12544;46.760;15.942;2023-12-20T07:11:51;70.60;;;42.45;;
24411;SDS011;12544;46.760;15.942;2023-12-20T07:14:17;87.30;;;44.83;;
24411;SDS011;12544;46.760;15.942;2023-12-20T07:16:43;78.78;;;43.47;;
24411;SDS011;12544;46.760;15.942;2023-12-20T07:19:08;75.60;;;40.78;;
24411;SDS011;12544;46.760;15.942;2023-12-20T07:21:34;78.15;;;42.92;;
24411;SDS011;12544;46.760;15.942;2023-12-20T07:24:00;68.65;;;38.55;;
24411;SDS011;12544;46.760;15.942;2023-12-20T07:26:25;71.43;;;37.40;;
24411;SDS011;12544;46.760;15.942;2023-12-20T07:28:51;66.78;;;34.95;;
24411;SDS011;12544;46.760;15.942;2023-12-20T07:31:17;69.65;;;36.63;;
24411;SDS011;12544;46.760;15.942;2023-12-20T07:33:42;76.30;;;41.42;;
24411;SDS011;12544;46.760;15.942;2023-12-20T07:36:08;77.65;;;39.55;;
24411;SDS011;12544;46.760;15.942;2023-12-20T07:38:33;72.47;;;40.90;;
24411;SDS011;12544;46.760;15.942;2023-12-20T07:40:59;76.38;;;40.42;;
24411;SDS011;12544;46.760;15.942;2023-12-20T07:43:25;67.47;;;36.13;;
24411;SDS011;12544;46.760;15.942;2023-12-20T07:45:50;71.00;;;37.83;;
24411;SDS011;12544;46.760;15.942;2023-12-20T07:48:16;61.75;;;37.15;;
24411;SDS011;12544;46.760;15.942;2023-12-20T07:50:42;65.18;;;35.40;;
24411;SDS011;12544;46.760;15.942;2023-12-20T07:53:08;59.17;;;35.60;;
24411;SDS011;12544;46.760;15.942;2023-12-20T07:55:33;54.58;;;33.17;;
24411;SDS011;12544;46.760;15.942;2023-12-20T07:57:59;62.35;;;35.28;;
24411;SDS011;12544;46.760;15.942;2023-12-20T08:00:25;54.78;;;33.75;;
24411;SDS011;12544;46.760;15.942;2023-12-20T08:02:51;60.83;;;35.20;;
24411;SDS011;12544;46.760;15.942;2023-12-20T08:05:17;57.40;;;33.72;;
24411;SDS011;12544;46.760;15.942;2023-12-20T08:07:43;54.92;;;34.55;;
24411;SDS011;12544;46.760;15.942;2023-12-20T08:10:09;62.75;;;36.63;;
24411;SDS011;12544;46.760;15.942;2023-12-20T08:12:35;52.58;;;31.60;;
24411;SDS011;12544;46.760;15.942;2023-12-20T08:15:01;61.15;;;36.10;;
24411;SDS011;12544;46.760;15.942;2023-12-20T08:17:26;51.83;;;32.88;;
24411;SDS011;12544;46.760;15.942;2023-12-20T08:19:52;45.72;;;29.75;;
24411;SDS011;12544;46.760;15.942;2023-12-20T08:22:18;44.38;;;29.15;;
24411;SDS011;12544;46.760;15.942;2023-12-20T08:24:43;44.70;;;27.98;;
24411;SDS011;12544;46.760;15.942;2023-12-20T08:27:09;42.72;;;28.20;;
24411;SDS011;12544;46.760;15.942;2023-12-20T08:29:35;46.63;;;28.35;;
24411;SDS011;12544;46.760;15.942;2023-12-20T08:32:01;42.20;;;26.88;;
24411;SDS011;12544;46.760;15.942;2023-12-20T08:34:27;43.15;;;28.33;;
24411;SDS011;12544;46.760;15.942;2023-12-20T08:36:52;49.45;;;29.98;;
24411;SDS011;12544;46.760;15.942;2023-12-20T08:39:18;45.50;;;28.55;;
24411;SDS011;12544;46.760;15.942;2023-12-20T08:41:44;46.97;;;27.90;;
24411;SDS011;12544;46.760;15.942;2023-12-20T08:44:09;46.38;;;28.73;;
24411;SDS011;12544;46.760;15.942;2023-12-20T08:46:35;40.30;;;25.67;;
24411;SDS011;12544;46.760;15.942;2023-12-20T08:49:01;41.55;;;27.45;;
24411;SDS011;12544;46.760;15.942;2023-12-20T08:51:27;35.78;;;23.98;;
24411;SDS011;12544;46.760;15.942;2023-12-20T08:53:53;33.92;;;24.13;;
24411;SDS011;12544;46.760;15.942;2023-12-20T08:56:19;34.92;;;23.83;;
24411;SDS011;12544;46.760;15.942;2023-12-20T08:58:45;33.17;;;22.63;;
24411;SDS011;12544;46.760;15.942;2023-12-20T09:01:12;34.30;;;22.02;;
24411;SDS011;12544;46.760;15.942;2023-12-20T09:03:37;32.55;;;23.02;;
24411;SDS011;12544;46.760;15.942;2023-12-20T09:06:05;35.65;;;23.35;;
24411;SDS011;12544;46.760;15.942;2023-12-20T09:08:31;33.28;;;23.63;;
24411;SDS011;12544;46.760;15.942;2023-12-20T09:10:56;33.33;;;23.83;;
24411;SDS011;12544;46.760;15.942;2023-12-20T09:13:22;34.15;;;23.67;;
24411;SDS011;12544;46.760;15.942;2023-12-20T09:15:53;34.60;;;21.65;;
24411;SDS011;12544;46.760;15.942;2023-12-20T09:18:20;29.05;;;21.20;;
24411;SDS011;12544;46.760;15.942;2023-12-20T09:20:45;28.58;;;21.33;;
24411;SDS011;12544;46.760;15.942;2023-12-20T09:23:11;35.58;;;22.35;;
24411;SDS011;12544;46.760;15.942;2023-12-20T09:25:36;32.38;;;22.27;;
24411;SDS011;12544;46.760;15.942;2023-12-20T09:28:02;41.38;;;26.42;;
24411;SDS011;12544;46.760;15.942;2023-12-20T09:30:28;37.30;;;25.80;;
24411;SDS011;12544;46.760;15.942;2023-12-20T09:32:54;38.22;;;25.33;;
24411;SDS011;12544;46.760;15.942;2023-12-20T09:35:20;31.92;;;23.10;;
24411;SDS011;12544;46.760;15.942;2023-12-20T09:37:46;29.98;;;21.33;;
24411;SDS011;12544;46.760;15.942;2023-12-20T09:40:14;25.33;;;18.25;;
24411;SDS011;12544;46.760;15.942;2023-12-20T09:45:22;24.65;;;19.73;;
24411;SDS011;12544;46.760;15.942;2023-12-20T09:47:52;28.42;;;17.98;;
24411;SDS011;12544;46.760;15.942;2023-12-20T09:50:22;20.63;;;16.60;;
24411;SDS011;12544;46.760;15.942;2023-12-20T09:52:49;22.08;;;15.77;;
24411;SDS011;12544;46.760;15.942;2023-12-20T09:55:17;23.63;;;16.35;;
24411;SDS011;12544;46.760;15.942;2023-12-20T09:57:44;20.10;;;15.73;;
24411;SDS011;12544;46.760;15.942;2023-12-20T10:00:10;20.52;;;15.80;;
24411;SDS011;12544;46.760;15.942;2023-12-20T10:02:37;21.85;;;16.55;;
24411;SDS011;12544;46.760;15.942;2023-12-20T10:05:07;27.85;;;16.05;;
24411;SDS011;12544;46.760;15.942;2023-12-20T10:07:37;21.20;;;16.10;;
24411;SDS011;12544;46.760;15.942;2023-12-20T10:10:02;18.48;;;15.80;;
24411;SDS011;12544;46.760;15.942;2023-12-20T10:12:29;23.00;;;16.35;;
24411;SDS011;12544;46.760;15.942;2023-12-20T10:14:54;20.48;;;16.17;;
24411;SDS011;12544;46.760;15.942;2023-12-20T10:17:20;22.30;;;15.40;;
24411;SDS011;12544;46.760;15.942;2023-12-20T10:19:46;18.60;;;14.38;;
24411;SDS011;12544;46.760;15.942;2023-12-20T10:22:12;20.98;;;14.55;;
24411;SDS011;12544;46.760;15.942;2023-12-20T10:24:38;24.65;;;16.05;;
24411;SDS011;12544;46.760;15.942;2023-12-20T10:27:07;25.85;;;16.42;;
24411;SDS011;12544;46.760;15.942;2023-12-20T10:29:36;30.75;;;18.13;;
24411;SDS011;12544;46.760;15.942;2023-12-20T10:32:22;29.50;;;19.38;;
24411;SDS011;12544;46.760;15.942;2023-12-20T10:34:49;22.27;;;17.77;;
24411;SDS011;12544;46.760;15.942;2023-12-20T10:37:19;28.38;;;19.75;;
24411;SDS011;12544;46.760;15.942;2023-12-20T10:39:51;26.17;;;18.88;;
24411;SDS011;12544;46.760;15.942;2023-12-20T10:42:23;25.55;;;18.17;;
24411;SDS011;12544;46.760;15.942;2023-12-20T10:44:51;25.92;;;17.52;;
24411;SDS011;12544;46.760;15.942;2023-12-20T10:47:18;24.85;;;18.92;;
24411;SDS011;12544;46.760;15.942;2023-12-20T10:49:44;17.77;;;13.48;;
24411;SDS011;12544;46.760;15.942;2023-12-20T10:52:11;15.43;;;11.25;;
24411;SDS011;12544;46.760;15.942;2023-12-20T10:54:37;18.83;;;12.57;;
24411;SDS011;12544;46.760;15.942;2023-12-20T10:57:05;16.17;;;12.23;;
24411;SDS011;12544;46.760;15.942;2023-12-20T10:59:32;17.70;;;11.88;;
24411;SDS011;12544;46.760;15.942;2023-12-20T11:02:01;14.40;;;11.45;;
24411;SDS011;12544;46.760;15.942;2023-12-20T11:04:31;14.38;;;11.48;;
24411;SDS011;12544;46.760;15.942;2023-12-20T11:07:15;19.30;;;13.45;;
24411;SDS011;12544;46.760;15.942;2023-12-20T11:09:43;20.52;;;12.65;;
24411;SDS011;12544;46.760;15.942;2023-12-20T11:12:25;24.35;;;13.95;;
24411;SDS011;12544;46.760;15.942;2023-12-20T11:15:08;17.20;;;14.35;;
24411;SDS011;12544;46.760;15.942;2023-12-20T11:17:35;19.88;;;14.43;;
24411;SDS011;12544;46.760;15.942;2023-12-20T11:20:04;15.82;;;13.55;;
24411;SDS011;12544;46.760;15.942;2023-12-20T11:22:31;16.88;;;13.15;;
24411;SDS011;12544;46.760;15.942;2023-12-20T11:25:04;17.20;;;13.25;;
24411;SDS011;12544;46.760;15.942;2023-12-20T11:27:34;16.42;;;12.15;;
24411;SDS011;12544;46.760;15.942;2023-12-20T11:30:02;19.27;;;14.30;;
24411;SDS011;12544;46.760;15.942;2023-12-20T11:32:32;16.00;;;11.52;;
24411;SDS011;12544;46.760;15.942;2023-12-20T11:35:00;21.98;;;12.70;;
24411;SDS011;12544;46.760;15.942;2023-12-20T11:37:41;20.40;;;13.33;;
24411;SDS011;12544;46.760;15.942;2023-12-20T11:40:08;16.15;;;13.82;;
24411;SDS011;12544;46.760;15.942;2023-12-20T11:42:48;18.58;;;14.95;;
24411;SDS011;12544;46.760;15.942;2023-12-20T11:45:15;18.52;;;14.25;;
24411;SDS011;12544;46.760;15.942;2023-12-20T11:47:46;27.50;;;16.23;;
24411;SDS011;12544;46.760;15.942;2023-12-20T11:50:14;17.55;;;13.05;;
24411;SDS011;12544;46.760;15.942;2023-12-20T11:52:40;15.18;;;12.75;;
24411;SDS011;12544;46.760;15.942;2023-12-20T11:55:06;18.02;;;15.65;;
24411;SDS011;12544;46.760;15.942;2023-12-20T11:57:32;18.73;;;14.63;;
24411;SDS011;12544;46.760;15.942;2023-12-20T11:59:58;16.70;;;13.95;;
24411;SDS011;12544;46.760;15.942;2023-12-20T12:02:24;17.45;;;13.23;;
24411;SDS011;12544;46.760;15.942;2023-12-20T12:04:50;15.50;;;11.70;;
24411;SDS011;12544;46.760;15.942;2023-12-20T12:07:16;14.02;;;10.90;;
24411;SDS011;12544;46.760;15.942;2023-12-20T12:09:42;15.73;;;11.13;;
24411;SDS011;12544;46.760;15.942;2023-12-20T12:12:08;16.02;;;11.20;;
24411;SDS011;12544;46.760;15.942;2023-12-20T12:14:34;19.75;;;11.52;;
24411;SDS011;12544;46.760;15.942;2023-12-20T12:17:02;17.92;;;11.52;;
24411;SDS011;12544;46.760;15.942;2023-12-20T12:19:28;17.67;;;11.25;;
24411;SDS011;12544;46.760;15.942;2023-12-20T12:22:15;14.38;;;11.35;;
24411;SDS011;12544;46.760;15.942;2023-12-20T12:24:42;18.13;;;11.98;;
24411;SDS011;12544;46.760;15.942;2023-12-20T12:27:08;13.55;;;10.68;;
24411;SDS011;12544;46.760;15.942;2023-12-20T12:29:35;12.15;;;10.85;;
24411;SDS011;12544;46.760;15.942;2023-12-20T12:32:05;17.35;;;11.63;;
24411;SDS011;12544;46.760;15.942;2023-12-20T12:34:36;20.83;;;11.00;;
24411;SDS011;12544;46.760;15.942;2023-12-20T12:37:01;18.15;;;10.88;;
24411;SDS011;12544;46.760;15.942;2023-12-20T12:39:30;11.73;;;10.50;;
24411;SDS011;12544;46.760;15.942;2023-12-20T12:41:56;13.65;;;10.77;;
24411;SDS011;12544;46.760;15.942;2023-12-20T12:44:24;17.50;;;12.77;;
24411;SDS011;12544;46.760;15.942;2023-12-20T12:46:50;14.55;;;12.73;;
24411;SDS011;12544;46.760;15.942;2023-12-20T12:49:18;22.80;;;15.75;;
24411;SDS011;12544;46.760;15.942;2023-12-20T12:51:46;20.15;;;14.80;;
24411;SDS011;12544;46.760;15.942;2023-12-20T12:54:12;19.17;;;14.98;;
24411;SDS011;12544;46.760;15.942;2023-12-20T12:56:38;28.05;;;17.00;;
24411;SDS011;12544;46.760;15.942;2023-12-20T12:59:04;21.95;;;17.33;;
24411;SDS011;12544;46.760;15.942;2023-12-20T13:01:30;21.70;;;15.63;;
24411;SDS011;12544;46.760;15.942;2023-12-20T13:03:56;27.20;;;17.13;;
24411;SDS011;12544;46.760;15.942;2023-12-20T13:06:22;25.65;;;16.92;;
24411;SDS011;12544;46.760;15.942;2023-12-20T13:08:49;27.33;;;17.42;;
24411;SDS011;12544;46.760;15.942;2023-12-20T13:11:15;16.80;;;12.35;;
24411;SDS011;12544;46.760;15.942;2023-12-20T13:13:40;19.42;;;13.15;;
24411;SDS011;12544;46.760;15.942;2023-12-20T13:16:06;23.02;;;14.07;;
24411;SDS011;12544;46.760;15.942;2023-12-20T13:18:32;18.75;;;14.10;;
24411;SDS011;12544;46.760;15.942;2023-12-20T13:20:58;18.45;;;14.07;;
24411;SDS011;12544;46.760;15.942;2023-12-20T13:23:24;21.38;;;13.35;;
24411;SDS011;12544;46.760;15.942;2023-12-20T13:25:49;26.83;;;15.57;;
24411;SDS011;12544;46.760;15.942;2023-12-20T13:28:15;21.08;;;15.75;;
24411;SDS011;12544;46.760;15.942;2023-12-20T13:30:41;22.27;;;15.55;;
24411;SDS011;12544;46.760;15.942;2023-12-20T13:33:06;27.02;;;16.02;;
24411;SDS011;12544;46.760;15.942;2023-12-20T13:35:33;24.30;;;15.18;;
24411;SDS011;12544;46.760;15.942;2023-12-20T13:37:59;21.02;;;16.85;;
24411;SDS011;12544;46.760;15.942;2023-12-20T13:40:26;25.98;;;16.05;;
24411;SDS011;12544;46.760;15.942;2023-12-20T13:42:51;23.13;;;17.40;;
24411;SDS011;12544;46.760;15.942;2023-12-20T13:45:17;25.08;;;17.55;;
24411;SDS011;12544;46.760;15.942;2023-12-20T13:47:43;23.20;;;16.95;;
24411;SDS011;12544;46.760;15.942;2023-12-20T13:50:08;22.83;;;17.85;;
24411;SDS011;12544;46.760;15.942;2023-12-20T13:52:34;34.55;;;22.08;;
24411;SDS011;12544;46.760;15.942;2023-12-20T13:55:01;26.63;;;18.77;;
24411;SDS011;12544;46.760;15.942;2023-12-20T13:57:26;37.40;;;24.73;;
24411;SDS011;12544;46.760;15.942;2023-12-20T13:59:54;31.23;;;23.15;;
24411;SDS011;12544;46.760;15.942;2023-12-20T14:02:22;32.88;;;21.50;;
24411;SDS011;12544;46.760;15.942;2023-12-20T14:04:47;25.90;;;19.35;;
24411;SDS011;12544;46.760;15.942;2023-12-20T14:07:13;22.52;;;18.00;;